Time;durP1;ratioP1;P1;durP2;ratioP2;P2;SDS_P1;SDS_P2;PMS_P1;PMS_P2;Temp;Humidity;BMP_temperature;BMP_pressure;BME280_temperature;BME280_humidity;BME280_pressure;Samples;Min_cycle;Max_cycle;Signal;HPM_P1;HPM_P2
2022/01/29 00:01:55;;;;;;;2.00;1.48;;;;;;;;;;5003583;28;20073;-69
2022/01/29 00:04:21;;;;;;;2.58;1.88;;;;;;;;;;5014801;28;20156;-69
2022/01/29 00:06:48;;;;;;;3.40;1.60;;;;;;;;;;5002469;28;20058;-69
2022/01/29 00:09:15;;;;;;;2.95;1.45;;;;;;;;;;5014860;28;20417;-69
2022/01/29 00:11:42;;;;;;;4.70;2.45;;;;;;;;;;5001238;28;20058;-69
2022/01/29 00:14:09;;;;;;;2.53;0.68;;;;;;;;;;5014848;28;20100;-69
2022/01/29 00:16:36;;;;;;;4.35;2.80;;;;;;;;;;5002045;28;20093;-69
2022/01/29 00:19:02;;;;;;;2.57;2.20;;;;;;;;;;5013497;28;20456;-69
2022/01/29 00:21:29;;;;;;;3.22;1.00;;;;;;;;;;5013761;28;20361;-69
2022/01/29 00:23:55;;;;;;;3.05;1.50;;;;;;;;;;5014646;28;20054;-69
2022/01/29 00:26:23;;;;;;;2.67;1.20;;;;;;;;;;5014500;28;20112;-69
2022/01/29 00:28:53;;;;;;;;;;;;;;;;;;5014667;28;20065;-69
2022/01/29 00:31:19;;;;;;;1.83;0.73;;;;;;;;;;5012988;28;19961;-69
2022/01/29 00:33:45;;;;;;;1.50;0.40;;;;;;;;;;5014564;28;20081;-69
2022/01/29 00:36:12;;;;;;;2.97;1.08;;;;;;;;;;5014187;28;20046;-69
2022/01/29 00:38:38;;;;;;;3.42;0.93;;;;;;;;;;5014320;28;20084;-68
2022/01/29 00:41:05;;;;;;;3.95;0.75;;;;;;;;;;5014256;28;20104;-69
2022/01/29 00:43:32;;;;;;;1.50;0.52;;;;;;;;;;5014339;28;20082;-69
2022/01/29 00:45:58;;;;;;;1.20;0.40;;;;;;;;;;5013961;28;20053;-68
2022/01/29 00:48:25;;;;;;;1.08;0.22;;;;;;;;;;5014023;28;20046;-69
2022/01/29 00:50:51;;;;;;;2.67;0.40;;;;;;;;;;5013979;28;20461;-69
2022/01/29 00:53:18;;;;;;;1.17;0.60;;;;;;;;;;5013946;28;20046;-68
2022/01/29 00:55:45;;;;;;;1.85;0.40;;;;;;;;;;5014063;28;20429;-68
2022/01/29 00:58:11;;;;;;;1.60;0.60;;;;;;;;;;5013770;28;20108;-69
2022/01/29 01:00:37;;;;;;;0.38;0.38;;;;;;;;;;5013980;28;20084;-69
2022/01/29 01:03:04;;;;;;;0.40;0.40;;;;;;;;;;5013968;28;20054;-69
2022/01/29 01:05:30;;;;;;;1.75;0.40;;;;;;;;;;5013802;28;20104;-68
2022/01/29 01:07:58;;;;;;;2.10;0.40;;;;;;;;;;5013978;28;20463;-69
2022/01/29 01:10:24;;;;;;;1.40;0.40;;;;;;;;;;5013697;28;20466;-68
2022/01/29 01:12:51;;;;;;;2.00;0.40;;;;;;;;;;5013385;28;20081;-68
2022/01/29 01:15:17;;;;;;;2.90;0.30;;;;;;;;;;5013589;28;20049;-68
2022/01/29 01:17:43;;;;;;;0.82;0.20;;;;;;;;;;5013623;28;20103;-69
2022/01/29 01:20:10;;;;;;;1.50;0.50;;;;;;;;;;5013150;28;20096;-68
2022/01/29 01:22:37;;;;;;;2.20;0.30;;;;;;;;;;5012293;28;20581;-69
2022/01/29 01:25:03;;;;;;;0.77;0.40;;;;;;;;;;5013315;28;20054;-69
2022/01/29 01:27:30;;;;;;;2.45;0.30;;;;;;;;;;5011934;28;20506;-69
2022/01/29 01:29:56;;;;;;;3.92;0.30;;;;;;;;;;5013380;28;20084;-69
2022/01/29 01:32:23;;;;;;;2.20;0.60;;;;;;;;;;5013004;28;20073;-68
2022/01/29 01:34:53;;;;;;;3.40;0.30;;;;;;;;;;5013071;28;20486;-69
2022/01/29 01:37:36;;;;;;;1.00;0.20;;;;;;;;;;5012031;28;20100;-69
2022/01/29 01:40:03;;;;;;;0.65;0.38;;;;;;;;;;5013304;28;20177;-69
2022/01/29 01:42:30;;;;;;;1.77;0.10;;;;;;;;;;5012865;28;20506;-69
2022/01/29 01:45:02;;;;;;;1.52;0.20;;;;;;;;;;5012067;28;20085;-69
2022/01/29 01:47:28;;;;;;;1.17;0.10;;;;;;;;;;5013073;28;20050;-69
2022/01/29 01:49:55;;;;;;;1.13;0.05;;;;;;;;;;5013023;28;20081;-69
2022/01/29 01:52:21;;;;;;;1.13;0.10;;;;;;;;;;5012708;28;20046;-69
2022/01/29 01:54:48;;;;;;;0.50;0.10;;;;;;;;;;5012606;28;20084;-69
2022/01/29 01:57:17;;;;;;;0.65;0.10;;;;;;;;;;5012963;28;20050;-69
2022/01/29 01:59:44;;;;;;;0.85;0.10;;;;;;;;;;5011611;28;20054;-69
2022/01/29 02:02:10;;;;;;;0.85;0.10;;;;;;;;;;5012856;28;20058;-69
2022/01/29 02:04:37;;;;;;;0.10;0.00;;;;;;;;;;5012669;28;20084;-69
2022/01/29 02:07:04;;;;;;;0.87;0.10;;;;;;;;;;5012548;28;20054;-69
2022/01/29 02:09:31;;;;;;;0.47;0.08;;;;;;;;;;5012232;28;20287;-70
2022/01/29 02:12:00;;;;;;;1.45;0.17;;;;;;;;;;5012129;28;20085;-69
2022/01/29 02:14:30;;;;;;;0.47;0.10;;;;;;;;;;5012684;28;20057;-69
2022/01/29 02:16:57;;;;;;;0.43;0.10;;;;;;;;;;5011394;28;20054;-69
2022/01/29 02:19:25;;;;;;;0.20;0.17;;;;;;;;;;5012338;28;20092;-69
2022/01/29 02:21:53;;;;;;;0.43;0.10;;;;;;;;;;5012485;28;20107;-69
2022/01/29 02:24:19;;;;;;;1.95;0.20;;;;;;;;;;5012288;28;20079;-69
2022/01/29 02:26:46;;;;;;;1.90;0.17;;;;;;;;;;5012466;28;20080;-69
2022/01/29 02:29:14;;;;;;;1.52;0.10;;;;;;;;;;5012071;28;20054;-69
2022/01/29 02:31:54;;;;;;;1.17;0.10;;;;;;;;;;5012074;28;20092;-69
2022/01/29 02:34:21;;;;;;;1.08;0.10;;;;;;;;;;5012306;28;20496;-69
2022/01/29 02:36:48;;;;;;;0.50;0.10;;;;;;;;;;5012349;28;20076;-69
2022/01/29 02:39:16;;;;;;;0.10;0.05;;;;;;;;;;5011963;28;20042;-69
2022/01/29 02:41:44;;;;;;;0.70;0.00;;;;;;;;;;5012138;28;20107;-69
2022/01/29 02:44:14;;;;;;;;;;;;;;;;;;5011168;28;20108;-69
2022/01/29 02:46:48;;;;;;;1.08;0.20;;;;;;;;;;5011988;28;19976;-69
2022/01/29 02:49:19;;;;;;;0.10;0.00;;;;;;;;;;5011891;28;20660;-69
2022/01/29 02:51:47;;;;;;;0.70;0.00;;;;;;;;;;5011831;28;20402;-69
2022/01/29 02:54:13;;;;;;;0.13;0.03;;;;;;;;;;5011999;28;20107;-69
2022/01/29 02:56:40;;;;;;;1.48;0.10;;;;;;;;;;5010938;28;20096;-69
2022/01/29 02:59:06;;;;;;;1.43;0.10;;;;;;;;;;5011722;28;20050;-69
2022/01/29 03:01:33;;;;;;;0.10;0.10;;;;;;;;;;5012014;28;20334;-69
2022/01/29 03:04:00;;;;;;;0.00;0.00;;;;;;;;;;5012099;28;20081;-69
2022/01/29 03:06:26;;;;;;;0.00;0.00;;;;;;;;;;5011977;28;20100;-69
2022/01/29 03:08:53;;;;;;;0.47;0.00;;;;;;;;;;5011678;28;20545;-69
2022/01/29 03:11:19;;;;;;;0.75;0.00;;;;;;;;;;5011469;28;20085;-69
2022/01/29 03:13:46;;;;;;;1.25;0.10;;;;;;;;;;5010437;28;20046;-69
2022/01/29 03:16:13;;;;;;;1.10;0.00;;;;;;;;;;5011667;28;20073;-69
2022/01/29 03:18:39;;;;;;;0.10;0.00;;;;;;;;;;5011589;28;20100;-69
2022/01/29 03:21:06;;;;;;;0.45;0.10;;;;;;;;;;5014393;28;20053;-69
2022/01/29 03:23:32;;;;;;;0.13;0.03;;;;;;;;;;5015665;28;20046;-69
2022/01/29 03:26:00;;;;;;;0.98;0.20;;;;;;;;;;5015719;28;20100;-69
2022/01/29 03:28:29;;;;;;;0.13;0.00;;;;;;;;;;5015561;28;20053;-69
2022/01/29 03:30:56;;;;;;;0.10;0.00;;;;;;;;;;5015188;28;20073;-69
2022/01/29 03:33:23;;;;;;;1.27;0.13;;;;;;;;;;5015395;28;20049;-69
2022/01/29 03:35:50;;;;;;;0.15;0.00;;;;;;;;;;5015587;28;20046;-69
2022/01/29 03:38:17;;;;;;;0.90;0.00;;;;;;;;;;5015417;28;20466;-69
2022/01/29 03:40:45;;;;;;;0.00;0.00;;;;;;;;;;5015230;28;20751;-69
2022/01/29 03:43:15;;;;;;;1.40;0.10;;;;;;;;;;5015116;28;20143;-69
2022/01/29 03:45:41;;;;;;;0.55;0.20;;;;;;;;;;5014226;28;20046;-69
2022/01/29 03:48:07;;;;;;;0.68;0.08;;;;;;;;;;5015263;28;20062;-69
2022/01/29 03:50:35;;;;;;;0.30;0.03;;;;;;;;;;5015069;28;20092;-69
2022/01/29 03:53:02;;;;;;;0.00;0.00;;;;;;;;;;5014976;28;20080;-69
2022/01/29 03:55:28;;;;;;;0.55;0.10;;;;;;;;;;5014898;28;20077;-69
2022/01/29 03:57:55;;;;;;;0.82;0.10;;;;;;;;;;5015103;28;20116;-69
2022/01/29 04:00:21;;;;;;;0.65;0.10;;;;;;;;;;5014875;28;20552;-69
2022/01/29 04:02:48;;;;;;;0.00;0.00;;;;;;;;;;5015186;28;20058;-69
2022/01/29 04:05:14;;;;;;;0.55;0.10;;;;;;;;;;5014777;28;20088;-69
2022/01/29 04:07:41;;;;;;;0.30;0.10;;;;;;;;;;5014707;28;20505;-69
2022/01/29 04:10:08;;;;;;;0.00;0.00;;;;;;;;;;5014944;28;20049;-69
2022/01/29 04:12:40;;;;;;;1.27;0.05;;;;;;;;;;5014485;28;20062;-69
2022/01/29 04:15:07;;;;;;;0.30;0.00;;;;;;;;;;5013606;28;20058;-69
2022/01/29 04:17:34;;;;;;;0.47;0.10;;;;;;;;;;5014707;28;20073;-69
2022/01/29 04:20:01;;;;;;;0.80;0.00;;;;;;;;;;5014636;28;20045;-69
2022/01/29 04:22:27;;;;;;;2.23;0.20;;;;;;;;;;5014538;28;20049;-69
2022/01/29 04:24:53;;;;;;;0.30;0.00;;;;;;;;;;5014698;28;20054;-69
2022/01/29 04:27:29;;;;;;;0.80;0.15;;;;;;;;;;5014613;28;20069;-69
2022/01/29 04:29:59;;;;;;;1.40;0.20;;;;;;;;;;5014320;28;20088;-69
2022/01/29 04:32:44;;;;;;;0.55;0.10;;;;;;;;;;5013701;28;20486;-69
2022/01/29 04:35:11;;;;;;;1.25;0.10;;;;;;;;;;5014508;28;20100;-69
2022/01/29 04:37:37;;;;;;;1.17;0.10;;;;;;;;;;5014336;28;20045;-69
2022/01/29 04:40:04;;;;;;;0.30;0.00;;;;;;;;;;5014157;28;20045;-69
2022/01/29 04:42:30;;;;;;;0.00;0.00;;;;;;;;;;5014050;28;20450;-69
2022/01/29 04:44:57;;;;;;;0.30;0.00;;;;;;;;;;5014177;28;20050;-69
2022/01/29 04:47:23;;;;;;;0.00;0.00;;;;;;;;;;5013919;28;20053;-69
2022/01/29 04:49:50;;;;;;;0.10;0.10;;;;;;;;;;5014408;28;20104;-69
2022/01/29 04:52:16;;;;;;;0.40;0.10;;;;;;;;;;5013840;28;20494;-69
2022/01/29 04:54:43;;;;;;;1.27;0.00;;;;;;;;;;5014062;28;20049;-69
2022/01/29 04:57:09;;;;;;;0.65;0.00;;;;;;;;;;5013768;28;20084;-69
2022/01/29 04:59:35;;;;;;;0.20;0.10;;;;;;;;;;5014011;28;20073;-69
2022/01/29 05:02:02;;;;;;;0.65;0.00;;;;;;;;;;5013822;28;20092;-69
2022/01/29 05:04:29;;;;;;;0.05;0.00;;;;;;;;;;5013666;28;20058;-69
2022/01/29 05:06:55;;;;;;;0.65;0.10;;;;;;;;;;5013750;28;20171;-69
2022/01/29 05:09:21;;;;;;;1.15;0.03;;;;;;;;;;5013547;28;20104;-69
2022/01/29 05:11:51;;;;;;;0.20;0.20;;;;;;;;;;5013334;28;20089;-69
2022/01/29 05:14:28;;;;;;;1.55;0.10;;;;;;;;;;5012338;28;20081;-69
2022/01/29 05:25:36;;;;;;;1.88;0.00;;;;;;;;;;5012485;28;20050;-69
2022/01/29 05:27:56;;;;;;;0.55;0.00;;;;;;;;;;5013255;28;20089;-69
2022/01/29 05:30:22;;;;;;;0.10;0.00;;;;;;;;;;5013234;28;20104;-69
2022/01/29 05:32:49;;;;;;;0.90;0.10;;;;;;;;;;5013366;28;20379;-69
2022/01/29 05:35:15;;;;;;;0.40;0.05;;;;;;;;;;5013118;28;20045;-69
2022/01/29 05:37:42;;;;;;;0.40;0.05;;;;;;;;;;5013276;28;20453;-70
2022/01/29 05:40:08;;;;;;;0.05;0.00;;;;;;;;;;5013303;28;20092;-69
2022/01/29 05:42:35;;;;;;;0.10;0.10;;;;;;;;;;5012401;28;20046;-69
2022/01/29 05:45:01;;;;;;;1.45;0.10;;;;;;;;;;5012895;28;20552;-70
2022/01/29 05:47:28;;;;;;;0.85;0.10;;;;;;;;;;5012956;28;20180;-70
2022/01/29 05:49:54;;;;;;;0.10;0.10;;;;;;;;;;5013053;28;20096;-69
2022/01/29 05:52:20;;;;;;;0.60;0.00;;;;;;;;;;5012614;28;20517;-69
2022/01/29 05:54:48;;;;;;;0.10;0.00;;;;;;;;;;5011454;28;20048;-69
2022/01/29 05:57:15;;;;;;;1.27;0.00;;;;;;;;;;5012971;28;20046;-69
2022/01/29 05:59:42;;;;;;;0.77;0.10;;;;;;;;;;5012943;28;20046;-69
2022/01/29 06:02:08;;;;;;;0.10;0.00;;;;;;;;;;5012890;28;20100;-69
2022/01/29 06:04:35;;;;;;;1.70;0.03;;;;;;;;;;5012852;28;20046;-69
2022/01/29 06:07:02;;;;;;;0.03;0.03;;;;;;;;;;5012391;28;20108;-69
2022/01/29 06:09:28;;;;;;;0.40;0.10;;;;;;;;;;5012533;28;20089;-69
2022/01/29 06:11:54;;;;;;;1.15;0.10;;;;;;;;;;5012310;28;20057;-69
2022/01/29 06:14:21;;;;;;;1.90;0.10;;;;;;;;;;5012389;28;20069;-70
2022/01/29 06:16:47;;;;;;;0.32;0.00;;;;;;;;;;5012311;28;20050;-69
2022/01/29 06:19:14;;;;;;;0.25;0.17;;;;;;;;;;5012289;28;20092;-70
2022/01/29 06:21:41;;;;;;;0.38;0.00;;;;;;;;;;5012273;28;20116;-70
2022/01/29 06:24:07;;;;;;;1.17;0.10;;;;;;;;;;5012483;28;20057;-69
2022/01/29 06:26:34;;;;;;;0.95;0.15;;;;;;;;;;5012249;28;20053;-69
2022/01/29 06:29:01;;;;;;;0.43;0.00;;;;;;;;;;5011072;28;20436;-69
2022/01/29 06:31:28;;;;;;;1.23;0.32;;;;;;;;;;5012269;28;20053;-69
2022/01/29 06:33:54;;;;;;;1.05;0.10;;;;;;;;;;5012037;28;20386;-69
2022/01/29 06:36:21;;;;;;;2.05;0.10;;;;;;;;;;5012571;28;20478;-70
2022/01/29 06:38:47;;;;;;;1.08;0.00;;;;;;;;;;5011969;28;20054;-69
2022/01/29 06:41:14;;;;;;;0.73;0.10;;;;;;;;;;5012329;28;20050;-69
2022/01/29 06:43:40;;;;;;;0.63;0.10;;;;;;;;;;5011932;28;20498;-69
2022/01/29 06:46:07;;;;;;;1.65;0.17;;;;;;;;;;5012198;28;20455;-69
2022/01/29 06:48:33;;;;;;;0.75;0.20;;;;;;;;;;5011855;28;20068;-70
2022/01/29 06:50:59;;;;;;;3.53;0.20;;;;;;;;;;5012151;28;20085;-70
2022/01/29 06:53:26;;;;;;;0.73;0.10;;;;;;;;;;5012048;28;20042;-69
2022/01/29 06:55:52;;;;;;;1.15;0.20;;;;;;;;;;5011834;28;20045;-69
2022/01/29 06:58:19;;;;;;;1.65;0.20;;;;;;;;;;5011826;28;20096;-69
2022/01/29 07:01:05;;;;;;;1.10;0.10;;;;;;;;;;5011917;28;20136;-69
2022/01/29 07:03:32;;;;;;;1.63;0.20;;;;;;;;;;5012143;28;20132;-69
2022/01/29 07:05:58;;;;;;;1.50;0.30;;;;;;;;;;5011686;28;20082;-69
2022/01/29 07:08:25;;;;;;;1.55;0.65;;;;;;;;;;5011865;28;20050;-70
2022/01/29 07:10:52;;;;;;;1.25;0.20;;;;;;;;;;5011681;28;20046;-69
2022/01/29 07:13:20;;;;;;;1.15;0.30;;;;;;;;;;5010557;28;20050;-69
2022/01/29 07:15:47;;;;;;;2.65;0.60;;;;;;;;;;5011980;28;20045;-69
2022/01/29 07:18:13;;;;;;;2.92;0.70;;;;;;;;;;5011702;28;20517;-69
2022/01/29 07:20:40;;;;;;;1.77;0.40;;;;;;;;;;5011125;28;20046;-66
2022/01/29 07:23:07;;;;;;;2.72;0.75;;;;;;;;;;5011060;28;20057;-67
2022/01/29 07:25:34;;;;;;;1.25;0.82;;;;;;;;;;5010457;28;20050;-67
2022/01/29 07:28:00;;;;;;;1.73;0.32;;;;;;;;;;5011018;28;20046;-67
2022/01/29 07:30:27;;;;;;;3.08;1.17;;;;;;;;;;5010876;28;20045;-69
2022/01/29 07:32:53;;;;;;;1.80;0.60;;;;;;;;;;5010736;28;20565;-67
2022/01/29 07:35:20;;;;;;;3.50;0.80;;;;;;;;;;5011291;28;20077;-66
2022/01/29 07:37:51;;;;;;;3.15;0.93;;;;;;;;;;5011527;28;20073;-69
2022/01/29 07:40:17;;;;;;;2.83;0.60;;;;;;;;;;5010810;28;20038;-67
2022/01/29 07:42:43;;;;;;;2.33;0.80;;;;;;;;;;5011226;28;20176;-67
2022/01/29 07:45:10;;;;;;;1.58;0.88;;;;;;;;;;5010682;28;20441;-70
2022/01/29 07:47:36;;;;;;;3.55;1.10;;;;;;;;;;5011120;28;20560;-69
2022/01/29 07:50:03;;;;;;;3.67;0.80;;;;;;;;;;5010934;28;20111;-67
2022/01/29 07:52:31;;;;;;;1.05;0.55;;;;;;;;;;5010840;28;20157;-70
2022/01/29 07:55:02;;;;;;;2.03;0.60;;;;;;;;;;5008753;28;20076;-69
2022/01/29 07:57:29;;;;;;;2.13;0.67;;;;;;;;;;5010971;28;20046;-69
2022/01/29 07:59:55;;;;;;;2.55;0.38;;;;;;;;;;5011314;28;20074;-69
2022/01/29 08:02:22;;;;;;;2.13;0.38;;;;;;;;;;5011461;28;20050;-67
2022/01/29 08:04:48;;;;;;;2.05;0.50;;;;;;;;;;5011254;28;20049;-67
2022/01/29 08:07:15;;;;;;;2.58;0.50;;;;;;;;;;5008389;28;20469;-69
2022/01/29 08:09:41;;;;;;;3.42;1.52;;;;;;;;;;5013916;28;20490;-71
2022/01/29 08:12:08;;;;;;;8.52;3.40;;;;;;;;;;5013424;28;20082;-69
2022/01/29 08:14:34;;;;;;;7.35;3.78;;;;;;;;;;5010902;28;20131;-70
2022/01/29 08:17:01;;;;;;;4.60;2.83;;;;;;;;;;5013969;28;20046;-68
2022/01/29 08:19:27;;;;;;;9.95;5.38;;;;;;;;;;5013957;28;20042;-69
2022/01/29 08:21:54;;;;;;;7.00;2.58;;;;;;;;;;5013688;28;20058;-70
2022/01/29 08:24:20;;;;;;;7.22;4.72;;;;;;;;;;5013720;28;20093;-70
2022/01/29 08:26:47;;;;;;;4.25;1.52;;;;;;;;;;5013704;28;20053;-70
2022/01/29 08:29:13;;;;;;;3.38;1.92;;;;;;;;;;5013959;28;20108;-70
2022/01/29 08:31:39;;;;;;;3.88;2.33;;;;;;;;;;5014297;28;20077;-70
2022/01/29 08:34:06;;;;;;;3.08;1.20;;;;;;;;;;5013844;28;20053;-68
2022/01/29 08:36:33;;;;;;;5.38;3.08;;;;;;;;;;5012888;28;20053;-68
2022/01/29 08:38:59;;;;;;;3.57;1.07;;;;;;;;;;5013480;28;20493;-68
2022/01/29 08:41:26;;;;;;;5.07;2.13;;;;;;;;;;5013143;28;20050;-69
2022/01/29 08:43:52;;;;;;;2.55;1.02;;;;;;;;;;5011539;28;20097;-67
2022/01/29 08:46:19;;;;;;;3.20;0.93;;;;;;;;;;5013328;28;20060;-69
2022/01/29 08:48:45;;;;;;;5.30;1.58;;;;;;;;;;5013324;28;20054;-68
2022/01/29 08:51:12;;;;;;;2.25;1.45;;;;;;;;;;5007438;28;20096;-71
2022/01/29 08:53:39;;;;;;;1.38;0.73;;;;;;;;;;5012721;28;20093;-71
2022/01/29 08:56:05;;;;;;;2.28;0.63;;;;;;;;;;5013034;28;20050;-71
2022/01/29 08:58:31;;;;;;;2.20;0.80;;;;;;;;;;5010730;28;20104;-70
2022/01/29 09:00:58;;;;;;;1.65;0.20;;;;;;;;;;5013292;28;20107;-70
2022/01/29 09:03:25;;;;;;;2.93;0.70;;;;;;;;;;5013367;28;20057;-71
2022/01/29 09:05:52;;;;;;;0.90;0.30;;;;;;;;;;5013384;28;20136;-72
2022/01/29 09:08:18;;;;;;;1.60;0.70;;;;;;;;;;5012512;28;20287;-70
2022/01/29 09:10:45;;;;;;;1.58;0.30;;;;;;;;;;5011277;28;20079;-71
2022/01/29 09:13:12;;;;;;;2.70;1.35;;;;;;;;;;5012883;28;20513;-70
2022/01/29 09:15:38;;;;;;;1.95;0.50;;;;;;;;;;5012956;28;20544;-71
2022/01/29 09:18:05;;;;;;;1.55;0.30;;;;;;;;;;5011440;28;20049;-70
2022/01/29 09:20:32;;;;;;;1.42;0.20;;;;;;;;;;5011837;28;20050;-70
2022/01/29 09:22:58;;;;;;;0.57;0.25;;;;;;;;;;5010866;28;20050;-69
2022/01/29 09:25:26;;;;;;;1.42;0.47;;;;;;;;;;5012572;28;20112;-69
2022/01/29 09:27:53;;;;;;;0.40;0.40;;;;;;;;;;5012898;28;20061;-71
2022/01/29 09:30:20;;;;;;;2.88;0.50;;;;;;;;;;5012639;28;20045;-70
2022/01/29 09:32:47;;;;;;;3.28;0.60;;;;;;;;;;5012650;28;20046;-71
2022/01/29 09:35:14;;;;;;;0.82;0.60;;;;;;;;;;5012462;28;20050;-69
2022/01/29 09:37:40;;;;;;;5.00;3.53;;;;;;;;;;5012559;28;20494;-70
2022/01/29 09:40:07;;;;;;;10.02;5.22;;;;;;;;;;5012716;28;20053;-70
2022/01/29 09:42:35;;;;;;;2.28;0.38;;;;;;;;;;5012464;28;20237;-69
2022/01/29 09:45:01;;;;;;;;;;;;;;;;;;5012570;28;20049;-70
2022/01/29 09:47:28;;;;;;;4.82;0.60;;;;;;;;;;5005224;28;20333;-70
2022/01/29 09:49:55;;;;;;;1.75;0.45;;;;;;;;;;5006582;28;20394;-70
2022/01/29 09:52:21;;;;;;;1.75;0.50;;;;;;;;;;5010578;28;20046;-70
2022/01/29 09:54:48;;;;;;;0.98;0.40;;;;;;;;;;5011858;28;21120;-70
2022/01/29 09:57:15;;;;;;;1.37;0.87;;;;;;;;;;5011974;28;20046;-69
2022/01/29 09:59:42;;;;;;;4.85;1.05;;;;;;;;;;5011719;28;20046;-69
2022/01/29 10:02:15;;;;;;;1.25;0.30;;;;;;;;;;5011575;28;20088;-69
2022/01/29 10:04:49;;;;;;;2.05;0.60;;;;;;;;;;5011908;28;20442;-69
2022/01/29 10:07:17;;;;;;;1.83;0.30;;;;;;;;;;5012004;28;20482;-70
2022/01/29 10:09:44;;;;;;;;;;;;;;;;;;5012166;28;20127;-70
2022/01/29 10:12:17;;;;;;;2.38;0.82;;;;;;;;;;5010083;28;20316;-69
2022/01/29 10:14:55;;;;;;;1.20;0.20;;;;;;;;;;5009810;28;20460;-70
2022/01/29 10:17:40;;;;;;;1.23;0.30;;;;;;;;;;5011758;28;20494;-69
2022/01/29 10:20:15;;;;;;;2.53;0.30;;;;;;;;;;5011561;28;20077;-69
2022/01/29 10:22:44;;;;;;;1.52;0.35;;;;;;;;;;5011781;28;20552;-69
2022/01/29 10:25:12;;;;;;;4.15;0.45;;;;;;;;;;5011644;28;20100;-70
2022/01/29 10:27:39;;;;;;;2.63;0.20;;;;;;;;;;5011977;28;20127;-69
2022/01/29 10:30:10;;;;;;;0.73;0.30;;;;;;;;;;5010978;28;20085;-70
2022/01/29 10:32:36;;;;;;;2.30;0.38;;;;;;;;;;5011876;28;20050;-65
2022/01/29 10:35:03;;;;;;;0.20;0.17;;;;;;;;;;5011781;28;20188;-64
2022/01/29 10:37:29;;;;;;;1.55;0.40;;;;;;;;;;5011156;28;20097;-65
2022/01/29 10:40:16;;;;;;;1.67;0.30;;;;;;;;;;5012008;28;20053;-65
2022/01/29 10:42:42;;;;;;;2.95;1.30;;;;;;;;;;5011512;28;20076;-65
2022/01/29 10:45:09;;;;;;;2.38;0.90;;;;;;;;;;5011490;28;20502;-65
2022/01/29 10:47:56;;;;;;;1.30;0.70;;;;;;;;;;5010731;28;20058;-65
2022/01/29 10:50:23;;;;;;;1.55;0.60;;;;;;;;;;5011397;28;20046;-65
2022/01/29 10:52:50;;;;;;;2.47;1.13;;;;;;;;;;5011558;28;20407;-64
2022/01/29 10:55:16;;;;;;;4.57;2.30;;;;;;;;;;5011243;28;20049;-65
2022/01/29 10:57:47;;;;;;;3.78;1.45;;;;;;;;;;5011643;28;20100;-65
2022/01/29 11:00:18;;;;;;;3.78;1.92;;;;;;;;;;5010555;28;20045;-65
2022/01/29 11:02:45;;;;;;;2.92;1.30;;;;;;;;;;5008544;28;20077;-64
2022/01/29 11:05:12;;;;;;;3.22;1.58;;;;;;;;;;5011137;28;20050;-64
2022/01/29 11:07:39;;;;;;;2.55;1.38;;;;;;;;;;5011027;28;20060;-69
2022/01/29 11:10:07;;;;;;;1.77;1.08;;;;;;;;;;5008211;28;20049;-68
2022/01/29 11:12:44;;;;;;;3.55;1.60;;;;;;;;;;5011362;28;20056;-69
2022/01/29 11:15:10;;;;;;;3.38;1.30;;;;;;;;;;5011355;28;20045;-69
2022/01/29 11:17:37;;;;;;;3.85;2.25;;;;;;;;;;5011738;28;20466;-69
2022/01/29 11:20:04;;;;;;;3.72;1.17;;;;;;;;;;5011581;28;20092;-69
2022/01/29 11:22:35;;;;;;;2.75;1.92;;;;;;;;;;5011417;28;20050;-69
2022/01/29 11:25:04;;;;;;;6.88;4.88;;;;;;;;;;5011637;28;20049;-69
2022/01/29 11:27:32;;;;;;;3.42;2.47;;;;;;;;;;5010970;28;20494;-69
2022/01/29 11:30:10;;;;;;;2.00;0.47;;;;;;;;;;5010773;28;20108;-67
2022/01/29 11:32:47;;;;;;;2.30;0.40;;;;;;;;;;5010963;28;20050;-69
2022/01/29 11:35:13;;;;;;;2.95;0.45;;;;;;;;;;5011326;28;20046;-69
2022/01/29 11:37:40;;;;;;;1.83;0.82;;;;;;;;;;5011014;28;20046;-67
2022/01/29 11:40:23;;;;;;;3.33;0.88;;;;;;;;;;5011235;28;20054;-70
2022/01/29 11:42:53;;;;;;;2.90;0.85;;;;;;;;;;5014002;28;20069;-68
2022/01/29 11:45:29;;;;;;;2.22;1.10;;;;;;;;;;5014169;28;20081;-68
2022/01/29 11:47:55;;;;;;;2.95;0.70;;;;;;;;;;5013786;28;20505;-68
2022/01/29 11:50:21;;;;;;;3.88;0.68;;;;;;;;;;5013179;28;20457;-69
2022/01/29 11:53:06;;;;;;;2.80;0.80;;;;;;;;;;5013155;28;20548;-69
2022/01/29 11:55:34;;;;;;;2.45;0.90;;;;;;;;;;5014850;28;20076;-68
2022/01/29 11:58:23;;;;;;;4.05;2.60;;;;;;;;;;5011328;28;20096;-69
2022/01/29 12:00:51;;;;;;;3.15;1.38;;;;;;;;;;5010564;28;20569;-69
2022/01/29 12:03:44;;;;;;;1.23;0.90;;;;;;;;;;5014124;28;20096;-69
2022/01/29 12:09:09;;;;;;;2.65;0.75;;;;;;;;;;5013388;28;20100;-70
2022/01/29 12:11:38;;;;;;;6.10;1.80;;;;;;;;;;5011435;28;20042;-69
2022/01/29 12:14:14;;;;;;;5.55;1.23;;;;;;;;;;5014197;28;20136;-69
2022/01/29 12:16:56;;;;;;;2.55;0.70;;;;;;;;;;5014076;28;20046;-70
2022/01/29 12:19:38;;;;;;;7.80;1.15;;;;;;;;;;5014198;28;20045;-68
2022/01/29 12:22:09;;;;;;;5.35;1.10;;;;;;;;;;5014205;28;20046;-69
2022/01/29 12:24:35;;;;;;;7.03;1.35;;;;;;;;;;5012431;28;20108;-69
2022/01/29 12:27:03;;;;;;;7.05;2.38;;;;;;;;;;5013430;28;20490;-68
2022/01/29 12:29:30;;;;;;;7.35;1.10;;;;;;;;;;5013718;28;20115;-69
2022/01/29 12:31:57;;;;;;;7.57;1.40;;;;;;;;;;5013551;28;20046;-69
2022/01/29 12:34:25;;;;;;;8.50;1.42;;;;;;;;;;5012235;28;20054;-69
2022/01/29 12:36:51;;;;;;;9.43;1.75;;;;;;;;;;5013598;28;20053;-68
2022/01/29 12:39:22;;;;;;;7.55;1.42;;;;;;;;;;5013240;28;20066;-69
2022/01/29 12:42:03;;;;;;;7.45;1.55;;;;;;;;;;5013526;28;20526;-69
2022/01/29 12:44:30;;;;;;;6.20;1.08;;;;;;;;;;5013397;28;20076;-69
2022/01/29 12:46:56;;;;;;;7.53;1.48;;;;;;;;;;5013034;28;20085;-69
2022/01/29 12:49:23;;;;;;;7.53;1.10;;;;;;;;;;5013226;28;20100;-68
2022/01/29 12:51:49;;;;;;;8.55;1.90;;;;;;;;;;5013001;28;20453;-69
2022/01/29 12:54:16;;;;;;;10.80;2.67;;;;;;;;;;5013045;28;20050;-70
2022/01/29 12:56:42;;;;;;;25.13;19.40;;;;;;;;;;5013116;28;20119;-69
2022/01/29 12:59:10;;;;;;;9.65;2.58;;;;;;;;;;5011954;28;20050;-69
2022/01/29 13:01:37;;;;;;;;;;;;;;;;;;5013683;28;20042;-70
2022/01/29 13:04:07;;;;;;;7.72;1.95;;;;;;;;;;5013115;28;20325;-70
2022/01/29 13:06:34;;;;;;;6.82;1.30;;;;;;;;;;5013064;28;20049;-70
2022/01/29 13:09:17;;;;;;;8.35;1.45;;;;;;;;;;5013380;28;20054;-70
2022/01/29 13:11:44;;;;;;;8.20;1.27;;;;;;;;;;5010881;28;20120;-71
2022/01/29 13:14:19;;;;;;;6.93;1.92;;;;;;;;;;5012744;28;20107;-70
2022/01/29 13:16:56;;;;;;;6.18;1.10;;;;;;;;;;5013247;28;20053;-71
2022/01/29 13:19:24;;;;;;;6.43;1.38;;;;;;;;;;5013160;28;20046;-68
2022/01/29 13:21:51;;;;;;;10.13;1.95;;;;;;;;;;5013061;28;20124;-68
2022/01/29 13:24:27;;;;;;;10.00;1.50;;;;;;;;;;5012738;28;20081;-67
2022/01/29 13:27:00;;;;;;;8.70;1.55;;;;;;;;;;5012823;28;20085;-69
2022/01/29 13:29:34;;;;;;;8.95;1.73;;;;;;;;;;5012673;28;20053;-69
2022/01/29 13:32:01;;;;;;;10.93;1.40;;;;;;;;;;5012330;28;20461;-69
2022/01/29 13:34:29;;;;;;;10.95;1.50;;;;;;;;;;5012281;28;20053;-70
2022/01/29 13:36:56;;;;;;;7.70;1.55;;;;;;;;;;5010359;28;20089;-68
2022/01/29 13:39:25;;;;;;;5.95;2.38;;;;;;;;;;5012111;28;20097;-68
2022/01/29 13:42:12;;;;;;;7.88;1.70;;;;;;;;;;5012446;28;20048;-67
2022/01/29 13:45:01;;;;;;;6.03;1.95;;;;;;;;;;5011604;28;20089;-66
2022/01/29 13:47:28;;;;;;;11.20;2.58;;;;;;;;;;5011675;28;20046;-69
2022/01/29 13:49:54;;;;;;;9.60;1.88;;;;;;;;;;5011755;28;20545;-70
2022/01/29 13:52:24;;;;;;;10.95;2.25;;;;;;;;;;5011806;28;20050;-69
2022/01/29 13:54:51;;;;;;;9.52;1.90;;;;;;;;;;5011985;28;20446;-68
2022/01/29 13:57:37;;;;;;;9.17;2.63;;;;;;;;;;5011015;28;20144;-69
2022/01/29 14:00:05;;;;;;;12.98;3.47;;;;;;;;;;5010623;28;20334;-69
2022/01/29 14:02:31;;;;;;;;;;;;;;;;;;5012123;28;20052;-67
2022/01/29 14:05:02;;;;;;;10.30;1.67;;;;;;;;;;5011586;28;19925;-69
2022/01/29 14:07:31;;;;;;;9.77;1.58;;;;;;;;;;5011918;28;20441;-68
2022/01/29 14:10:10;;;;;;;11.57;2.65;;;;;;;;;;5010700;28;20054;-70
2022/01/29 14:12:47;;;;;;;20.10;5.38;;;;;;;;;;5011634;28;20105;-69
2022/01/29 14:15:14;;;;;;;11.25;3.67;;;;;;;;;;5011710;28;20092;-68
2022/01/29 14:17:41;;;;;;;10.23;2.42;;;;;;;;;;5011076;28;20521;-69
2022/01/29 14:20:08;;;;;;;11.35;2.63;;;;;;;;;;5010265;28;20092;-69
2022/01/29 14:22:36;;;;;;;10.98;2.78;;;;;;;;;;5010478;28;20050;-68
2022/01/29 14:25:07;;;;;;;9.32;3.17;;;;;;;;;;5010644;28;20049;-68
2022/01/29 14:27:34;;;;;;;8.88;1.48;;;;;;;;;;5009612;28;20050;-69
2022/01/29 14:30:00;;;;;;;6.80;2.15;;;;;;;;;;5009888;28;20054;-69
2022/01/29 14:32:28;;;;;;;6.80;1.70;;;;;;;;;;5009820;28;20058;-68
2022/01/29 14:35:01;;;;;;;10.43;1.90;;;;;;;;;;5005350;28;20104;-69
2022/01/29 14:37:27;;;;;;;;;;;;;;;;;;5009933;28;20472;-69
2022/01/29 14:39:54;;;;;;;7.47;2.05;;;;;;;;;;5010238;28;19975;-69
2022/01/29 14:42:28;;;;;;;13.10;3.92;;;;;;;;;;5011039;28;20052;-69
2022/01/29 14:44:54;;;;;;;13.73;3.30;;;;;;;;;;5011415;28;20536;-69
2022/01/29 14:47:21;;;;;;;13.48;2.72;;;;;;;;;;5011342;28;20053;-68
2022/01/29 14:49:48;;;;;;;10.43;2.43;;;;;;;;;;5011124;28;20108;-69
2022/01/29 14:52:15;;;;;;;7.90;3.08;;;;;;;;;;5010862;28;20054;-69
2022/01/29 14:54:42;;;;;;;11.73;2.85;;;;;;;;;;5011303;28;20403;-69
2022/01/29 14:57:08;;;;;;;9.23;2.90;;;;;;;;;;5011313;28;20451;-69
2022/01/29 14:59:35;;;;;;;10.10;3.25;;;;;;;;;;5011046;28;20077;-69
2022/01/29 15:02:01;;;;;;;8.35;1.90;;;;;;;;;;5011659;28;20041;-68